Airport View

Enter AWOS ICAO identifier for current METAR.

ex. KFNL

KRKS 212354Z AUTO 26011KT 10SM BKN065 OVC090 12/M02 A3014 RMK AO2 SLP175 T01221022 10144 20100 55003

22 Sep 2019 00:17

Frequency: 118.375

Phone: 307-362-2541

Other Area AWOS: KFWZ - KLND - KFBR - KEMM

TAF KRKS 212320Z 2200/2224 26015G25KT P6SM BKN050 FM220200 27010KT P6SM SCT050 FM220400 24007KT P6SM SKC FM221600 25011KT P6SM SKC FM221900 25013G23KT P6SM SKC